sensor_id;sensor_type;location;lat;lon;timestamp;P1;durP1;ratioP1;P2;durP2;ratioP2
10894;SDS011;5500;49.886;8.074;2023-03-01T00:01:05;9.67;;;8.03;;
10894;SDS011;5500;49.886;8.074;2023-03-01T00:03:33;10.63;;;8.60;;
10894;SDS011;5500;49.886;8.074;2023-03-01T00:06:02;9.63;;;8.00;;
10894;SDS011;5500;49.886;8.074;2023-03-01T00:08:30;10.50;;;8.37;;
10894;SDS011;5500;49.886;8.074;2023-03-01T00:11:03;13.50;;;8.73;;
10894;SDS011;5500;49.886;8.074;2023-03-01T00:13:33;13.13;;;8.07;;
10894;SDS011;5500;49.886;8.074;2023-03-01T00:16:02;9.53;;;8.30;;
10894;SDS011;5500;49.886;8.074;2023-03-01T00:18:30;9.83;;;8.53;;
10894;SDS011;5500;49.886;8.074;2023-03-01T00:20:58;13.20;;;8.77;;
10894;SDS011;5500;49.886;8.074;2023-03-01T00:23:26;10.97;;;7.87;;
10894;SDS011;5500;49.886;8.074;2023-03-01T00:25:53;11.80;;;9.30;;
10894;SDS011;5500;49.886;8.074;2023-03-01T00:28:21;14.80;;;9.03;;
10894;SDS011;5500;49.886;8.074;2023-03-01T00:30:50;13.13;;;9.57;;
10894;SDS011;5500;49.886;8.074;2023-03-01T00:33:18;12.70;;;8.63;;
10894;SDS011;5500;49.886;8.074;2023-03-01T00:35:46;11.03;;;8.60;;
10894;SDS011;5500;49.886;8.074;2023-03-01T00:38:14;11.23;;;8.17;;
10894;SDS011;5500;49.886;8.074;2023-03-01T00:40:41;11.77;;;8.27;;
10894;SDS011;5500;49.886;8.074;2023-03-01T00:43:12;10.13;;;8.83;;
10894;SDS011;5500;49.886;8.074;2023-03-01T00:45:40;13.00;;;8.80;;
10894;SDS011;5500;49.886;8.074;2023-03-01T00:48:10;11.27;;;8.87;;
10894;SDS011;5500;49.886;8.074;2023-03-01T00:50:41;10.80;;;8.33;;
10894;SDS011;5500;49.886;8.074;2023-03-01T00:53:08;10.70;;;8.10;;
10894;SDS011;5500;49.886;8.074;2023-03-01T00:55:38;11.53;;;8.57;;
10894;SDS011;5500;49.886;8.074;2023-03-01T00:58:06;10.07;;;8.23;;
10894;SDS011;5500;49.886;8.074;2023-03-01T01:00:34;11.10;;;8.30;;
10894;SDS011;5500;49.886;8.074;2023-03-01T01:03:04;15.50;;;9.07;;
10894;SDS011;5500;49.886;8.074;2023-03-01T01:05:37;14.10;;;8.97;;
10894;SDS011;5500;49.886;8.074;2023-03-01T01:08:06;12.00;;;8.50;;
10894;SDS011;5500;49.886;8.074;2023-03-01T01:10:34;11.53;;;8.83;;
10894;SDS011;5500;49.886;8.074;2023-03-01T01:13:02;11.90;;;8.67;;
10894;SDS011;5500;49.886;8.074;2023-03-01T01:15:33;13.97;;;9.43;;
10894;SDS011;5500;49.886;8.074;2023-03-01T01:18:04;11.33;;;8.87;;
10894;SDS011;5500;49.886;8.074;2023-03-01T01:20:32;10.20;;;8.90;;
10894;SDS011;5500;49.886;8.074;2023-03-01T01:23:01;13.80;;;9.77;;
10894;SDS011;5500;49.886;8.074;2023-03-01T01:25:29;11.50;;;8.97;;
10894;SDS011;5500;49.886;8.074;2023-03-01T01:27:56;12.00;;;9.33;;
10894;SDS011;5500;49.886;8.074;2023-03-01T01:30:24;15.47;;;10.33;;
10894;SDS011;5500;49.886;8.074;2023-03-01T01:32:51;12.63;;;8.80;;
10894;SDS011;5500;49.886;8.074;2023-03-01T01:35:19;11.93;;;8.83;;
10894;SDS011;5500;49.886;8.074;2023-03-01T01:37:46;13.37;;;10.67;;
10894;SDS011;5500;49.886;8.074;2023-03-01T01:40:15;12.87;;;8.57;;
10894;SDS011;5500;49.886;8.074;2023-03-01T01:42:43;15.13;;;9.63;;
10894;SDS011;5500;49.886;8.074;2023-03-01T01:45:27;11.97;;;9.20;;
10894;SDS011;5500;49.886;8.074;2023-03-01T01:47:58;13.80;;;9.10;;
10894;SDS011;5500;49.886;8.074;2023-03-01T01:50:28;14.17;;;8.87;;
10894;SDS011;5500;49.886;8.074;2023-03-01T01:53:05;15.53;;;9.50;;
10894;SDS011;5500;49.886;8.074;2023-03-01T01:55:35;14.03;;;9.27;;
10894;SDS011;5500;49.886;8.074;2023-03-01T01:58:04;16.13;;;9.63;;
10894;SDS011;5500;49.886;8.074;2023-03-01T02:00:33;11.17;;;9.30;;
10894;SDS011;5500;49.886;8.074;2023-03-01T02:03:01;11.97;;;9.43;;
10894;SDS011;5500;49.886;8.074;2023-03-01T02:05:33;13.57;;;10.00;;
10894;SDS011;5500;49.886;8.074;2023-03-01T02:08:03;12.90;;;9.30;;
10894;SDS011;5500;49.886;8.074;2023-03-01T02:10:31;13.03;;;9.67;;
10894;SDS011;5500;49.886;8.074;2023-03-01T02:13:01;13.67;;;9.73;;
10894;SDS011;5500;49.886;8.074;2023-03-01T02:15:31;12.00;;;9.27;;
10894;SDS011;5500;49.886;8.074;2023-03-01T02:17:59;14.10;;;9.43;;
10894;SDS011;5500;49.886;8.074;2023-03-01T02:20:29;13.80;;;9.63;;
10894;SDS011;5500;49.886;8.074;2023-03-01T02:23:00;15.03;;;10.33;;
10894;SDS011;5500;49.886;8.074;2023-03-01T02:25:34;12.83;;;9.60;;
10894;SDS011;5500;49.886;8.074;2023-03-01T02:28:04;14.47;;;9.63;;
10894;SDS011;5500;49.886;8.074;2023-03-01T02:30:39;19.63;;;10.07;;
10894;SDS011;5500;49.886;8.074;2023-03-01T02:33:27;12.23;;;9.57;;
10894;SDS011;5500;49.886;8.074;2023-03-01T02:35:54;16.83;;;10.30;;
10894;SDS011;5500;49.886;8.074;2023-03-01T02:38:22;13.37;;;9.70;;
10894;SDS011;5500;49.886;8.074;2023-03-01T02:40:50;17.67;;;9.77;;
10894;SDS011;5500;49.886;8.074;2023-03-01T02:43:18;15.10;;;9.87;;
10894;SDS011;5500;49.886;8.074;2023-03-01T02:45:51;13.27;;;9.73;;
10894;SDS011;5500;49.886;8.074;2023-03-01T02:48:19;13.17;;;9.90;;
10894;SDS011;5500;49.886;8.074;2023-03-01T02:50:57;19.23;;;10.57;;
10894;SDS011;5500;49.886;8.074;2023-03-01T02:53:33;14.47;;;10.00;;
10894;SDS011;5500;49.886;8.074;2023-03-01T02:56:05;12.67;;;9.63;;
10894;SDS011;5500;49.886;8.074;2023-03-01T02:58:39;13.83;;;10.20;;
10894;SDS011;5500;49.886;8.074;2023-03-01T03:01:13;14.47;;;10.03;;
10894;SDS011;5500;49.886;8.074;2023-03-01T03:03:42;15.27;;;10.60;;
10894;SDS011;5500;49.886;8.074;2023-03-01T03:06:10;13.73;;;10.10;;
10894;SDS011;5500;49.886;8.074;2023-03-01T03:08:37;12.90;;;9.60;;
10894;SDS011;5500;49.886;8.074;2023-03-01T03:11:05;13.50;;;9.50;;
10894;SDS011;5500;49.886;8.074;2023-03-01T03:13:32;16.03;;;10.57;;
10894;SDS011;5500;49.886;8.074;2023-03-01T03:16:01;15.03;;;10.10;;
10894;SDS011;5500;49.886;8.074;2023-03-01T03:18:31;16.83;;;10.63;;
10894;SDS011;5500;49.886;8.074;2023-03-01T03:20:58;14.73;;;10.90;;
10894;SDS011;5500;49.886;8.074;2023-03-01T03:23:26;12.80;;;10.33;;
10894;SDS011;5500;49.886;8.074;2023-03-01T03:25:55;14.47;;;10.63;;
10894;SDS011;5500;49.886;8.074;2023-03-01T03:28:23;14.37;;;10.60;;
10894;SDS011;5500;49.886;8.074;2023-03-01T03:30:50;14.77;;;10.43;;
10894;SDS011;5500;49.886;8.074;2023-03-01T03:33:18;14.93;;;10.50;;
10894;SDS011;5500;49.886;8.074;2023-03-01T03:35:48;15.50;;;10.87;;
10894;SDS011;5500;49.886;8.074;2023-03-01T03:38:16;13.93;;;10.27;;
10894;SDS011;5500;49.886;8.074;2023-03-01T03:40:48;16.27;;;10.60;;
10894;SDS011;5500;49.886;8.074;2023-03-01T03:43:19;13.23;;;10.27;;
10894;SDS011;5500;49.886;8.074;2023-03-01T03:45:48;15.83;;;11.03;;
10894;SDS011;5500;49.886;8.074;2023-03-01T03:48:16;14.17;;;9.73;;
10894;SDS011;5500;49.886;8.074;2023-03-01T03:50:49;15.57;;;10.47;;
10894;SDS011;5500;49.886;8.074;2023-03-01T03:53:17;13.97;;;10.40;;
10894;SDS011;5500;49.886;8.074;2023-03-01T03:55:45;13.67;;;10.37;;
10894;SDS011;5500;49.886;8.074;2023-03-01T03:58:15;15.37;;;10.03;;
10894;SDS011;5500;49.886;8.074;2023-03-01T04:00:46;13.13;;;10.30;;
10894;SDS011;5500;49.886;8.074;2023-03-01T04:03:15;15.47;;;11.43;;
10894;SDS011;5500;49.886;8.074;2023-03-01T04:05:44;13.20;;;10.30;;
10894;SDS011;5500;49.886;8.074;2023-03-01T04:08:14;14.27;;;10.60;;
10894;SDS011;5500;49.886;8.074;2023-03-01T04:10:44;18.23;;;11.67;;
10894;SDS011;5500;49.886;8.074;2023-03-01T04:13:14;13.10;;;10.67;;
10894;SDS011;5500;49.886;8.074;2023-03-01T04:15:43;17.20;;;10.93;;
10894;SDS011;5500;49.886;8.074;2023-03-01T04:18:11;14.93;;;10.83;;
10894;SDS011;5500;49.886;8.074;2023-03-01T04:20:40;15.67;;;11.57;;
10894;SDS011;5500;49.886;8.074;2023-03-01T04:23:09;22.30;;;11.60;;
10894;SDS011;5500;49.886;8.074;2023-03-01T04:25:41;15.30;;;10.97;;
10894;SDS011;5500;49.886;8.074;2023-03-01T04:28:12;14.87;;;11.20;;
10894;SDS011;5500;49.886;8.074;2023-03-01T04:30:40;13.93;;;10.77;;
10894;SDS011;5500;49.886;8.074;2023-03-01T04:33:08;17.03;;;11.83;;
10894;SDS011;5500;49.886;8.074;2023-03-01T04:35:37;15.73;;;11.70;;
10894;SDS011;5500;49.886;8.074;2023-03-01T04:38:06;16.53;;;10.93;;
10894;SDS011;5500;49.886;8.074;2023-03-01T04:40:35;15.37;;;11.10;;
10894;SDS011;5500;49.886;8.074;2023-03-01T04:43:04;14.07;;;10.83;;
10894;SDS011;5500;49.886;8.074;2023-03-01T04:45:32;17.73;;;11.27;;
10894;SDS011;5500;49.886;8.074;2023-03-01T04:48:01;15.90;;;12.20;;
10894;SDS011;5500;49.886;8.074;2023-03-01T04:50:29;15.57;;;10.80;;
10894;SDS011;5500;49.886;8.074;2023-03-01T04:52:57;15.03;;;11.57;;
10894;SDS011;5500;49.886;8.074;2023-03-01T04:55:25;17.17;;;11.20;;
10894;SDS011;5500;49.886;8.074;2023-03-01T04:57:53;16.23;;;11.47;;
10894;SDS011;5500;49.886;8.074;2023-03-01T05:00:22;13.93;;;11.13;;
10894;SDS011;5500;49.886;8.074;2023-03-01T05:02:51;19.43;;;12.23;;
10894;SDS011;5500;49.886;8.074;2023-03-01T05:05:21;14.40;;;11.07;;
10894;SDS011;5500;49.886;8.074;2023-03-01T05:07:52;15.10;;;10.30;;
10894;SDS011;5500;49.886;8.074;2023-03-01T05:10:20;14.93;;;11.40;;
10894;SDS011;5500;49.886;8.074;2023-03-01T05:12:48;20.20;;;12.07;;
10894;SDS011;5500;49.886;8.074;2023-03-01T05:15:15;14.17;;;11.40;;
10894;SDS011;5500;49.886;8.074;2023-03-01T05:17:44;18.07;;;11.63;;
10894;SDS011;5500;49.886;8.074;2023-03-01T05:20:13;22.53;;;13.33;;
10894;SDS011;5500;49.886;8.074;2023-03-01T05:22:40;17.90;;;11.90;;
10894;SDS011;5500;49.886;8.074;2023-03-01T05:25:08;17.57;;;12.33;;
10894;SDS011;5500;49.886;8.074;2023-03-01T05:27:36;19.00;;;12.50;;
10894;SDS011;5500;49.886;8.074;2023-03-01T05:30:04;17.57;;;13.03;;
10894;SDS011;5500;49.886;8.074;2023-03-01T05:32:40;17.37;;;12.50;;
10894;SDS011;5500;49.886;8.074;2023-03-01T05:35:12;16.53;;;12.53;;
10894;SDS011;5500;49.886;8.074;2023-03-01T05:37:41;18.43;;;13.07;;
10894;SDS011;5500;49.886;8.074;2023-03-01T05:40:10;17.37;;;11.60;;
10894;SDS011;5500;49.886;8.074;2023-03-01T05:42:43;15.80;;;11.53;;
10894;SDS011;5500;49.886;8.074;2023-03-01T05:45:11;16.17;;;12.13;;
10894;SDS011;5500;49.886;8.074;2023-03-01T05:47:39;17.60;;;12.37;;
10894;SDS011;5500;49.886;8.074;2023-03-01T05:50:12;18.60;;;12.50;;
10894;SDS011;5500;49.886;8.074;2023-03-01T05:52:45;16.10;;;12.40;;
10894;SDS011;5500;49.886;8.074;2023-03-01T05:55:14;17.37;;;12.43;;
10894;SDS011;5500;49.886;8.074;2023-03-01T05:57:42;15.73;;;11.60;;
10894;SDS011;5500;49.886;8.074;2023-03-01T06:00:11;18.13;;;11.70;;
10894;SDS011;5500;49.886;8.074;2023-03-01T06:02:40;17.73;;;12.70;;
10894;SDS011;5500;49.886;8.074;2023-03-01T06:05:08;17.80;;;12.17;;
10894;SDS011;5500;49.886;8.074;2023-03-01T06:07:38;16.77;;;11.60;;
10894;SDS011;5500;49.886;8.074;2023-03-01T06:10:06;16.57;;;12.47;;
10894;SDS011;5500;49.886;8.074;2023-03-01T06:12:36;16.13;;;11.77;;
10894;SDS011;5500;49.886;8.074;2023-03-01T06:15:05;17.40;;;12.67;;
10894;SDS011;5500;49.886;8.074;2023-03-01T06:17:36;21.23;;;12.57;;
10894;SDS011;5500;49.886;8.074;2023-03-01T06:20:05;19.77;;;13.13;;
10894;SDS011;5500;49.886;8.074;2023-03-01T06:22:34;16.67;;;12.07;;
10894;SDS011;5500;49.886;8.074;2023-03-01T06:25:04;17.23;;;12.83;;
10894;SDS011;5500;49.886;8.074;2023-03-01T06:27:33;17.63;;;13.17;;
10894;SDS011;5500;49.886;8.074;2023-03-01T06:30:01;20.00;;;13.80;;
10894;SDS011;5500;49.886;8.074;2023-03-01T06:32:28;15.23;;;11.47;;
10894;SDS011;5500;49.886;8.074;2023-03-01T06:34:56;20.70;;;12.93;;
10894;SDS011;5500;49.886;8.074;2023-03-01T06:37:24;17.43;;;13.27;;
10894;SDS011;5500;49.886;8.074;2023-03-01T06:39:52;16.87;;;11.10;;
10894;SDS011;5500;49.886;8.074;2023-03-01T06:42:21;13.43;;;10.60;;
10894;SDS011;5500;49.886;8.074;2023-03-01T06:44:48;17.47;;;12.63;;
10894;SDS011;5500;49.886;8.074;2023-03-01T06:47:16;21.30;;;12.73;;
10894;SDS011;5500;49.886;8.074;2023-03-01T06:49:43;16.67;;;12.03;;
10894;SDS011;5500;49.886;8.074;2023-03-01T06:52:11;17.97;;;12.83;;
10894;SDS011;5500;49.886;8.074;2023-03-01T06:54:38;16.50;;;11.93;;
10894;SDS011;5500;49.886;8.074;2023-03-01T06:57:06;17.00;;;11.70;;
10894;SDS011;5500;49.886;8.074;2023-03-01T06:59:35;17.77;;;12.87;;
10894;SDS011;5500;49.886;8.074;2023-03-01T07:02:03;18.43;;;12.63;;
10894;SDS011;5500;49.886;8.074;2023-03-01T07:04:30;16.83;;;12.23;;
10894;SDS011;5500;49.886;8.074;2023-03-01T07:06:58;17.27;;;13.17;;
10894;SDS011;5500;49.886;8.074;2023-03-01T07:09:25;16.80;;;12.23;;
10894;SDS011;5500;49.886;8.074;2023-03-01T07:11:53;16.63;;;12.57;;
10894;SDS011;5500;49.886;8.074;2023-03-01T07:14:21;16.63;;;12.33;;
10894;SDS011;5500;49.886;8.074;2023-03-01T07:16:51;15.93;;;11.97;;
10894;SDS011;5500;49.886;8.074;2023-03-01T07:19:19;18.30;;;12.50;;
10894;SDS011;5500;49.886;8.074;2023-03-01T07:21:47;15.30;;;12.47;;
10894;SDS011;5500;49.886;8.074;2023-03-01T07:24:15;16.13;;;13.40;;
10894;SDS011;5500;49.886;8.074;2023-03-01T07:26:42;20.53;;;12.90;;
10894;SDS011;5500;49.886;8.074;2023-03-01T07:29:10;15.27;;;12.47;;
10894;SDS011;5500;49.886;8.074;2023-03-01T07:31:38;19.40;;;14.07;;
10894;SDS011;5500;49.886;8.074;2023-03-01T07:34:07;18.07;;;13.07;;
10894;SDS011;5500;49.886;8.074;2023-03-01T07:36:34;19.50;;;13.73;;
10894;SDS011;5500;49.886;8.074;2023-03-01T07:39:02;16.10;;;11.63;;
10894;SDS011;5500;49.886;8.074;2023-03-01T07:41:30;16.57;;;12.80;;
10894;SDS011;5500;49.886;8.074;2023-03-01T07:43:57;16.00;;;11.40;;
10894;SDS011;5500;49.886;8.074;2023-03-01T07:46:25;18.20;;;11.87;;
10894;SDS011;5500;49.886;8.074;2023-03-01T07:48:53;16.03;;;11.47;;
10894;SDS011;5500;49.886;8.074;2023-03-01T07:51:22;15.57;;;12.17;;
10894;SDS011;5500;49.886;8.074;2023-03-01T07:53:49;17.37;;;11.17;;
10894;SDS011;5500;49.886;8.074;2023-03-01T07:56:17;16.17;;;11.73;;
10894;SDS011;5500;49.886;8.074;2023-03-01T07:58:45;16.20;;;12.07;;
10894;SDS011;5500;49.886;8.074;2023-03-01T08:01:17;14.83;;;11.23;;
10894;SDS011;5500;49.886;8.074;2023-03-01T08:03:45;13.73;;;11.93;;
10894;SDS011;5500;49.886;8.074;2023-03-01T08:06:14;17.10;;;11.97;;
10894;SDS011;5500;49.886;8.074;2023-03-01T08:08:44;17.17;;;11.80;;
10894;SDS011;5500;49.886;8.074;2023-03-01T08:11:13;15.13;;;11.10;;
10894;SDS011;5500;49.886;8.074;2023-03-01T08:13:42;14.47;;;10.87;;
10894;SDS011;5500;49.886;8.074;2023-03-01T08:16:11;18.93;;;11.20;;
10894;SDS011;5500;49.886;8.074;2023-03-01T08:18:39;16.83;;;11.50;;
10894;SDS011;5500;49.886;8.074;2023-03-01T08:21:08;16.90;;;11.50;;
10894;SDS011;5500;49.886;8.074;2023-03-01T08:23:37;14.97;;;11.17;;
10894;SDS011;5500;49.886;8.074;2023-03-01T08:26:08;16.23;;;11.13;;
10894;SDS011;5500;49.886;8.074;2023-03-01T08:28:36;16.33;;;12.03;;
10894;SDS011;5500;49.886;8.074;2023-03-01T08:31:12;15.47;;;11.13;;
10894;SDS011;5500;49.886;8.074;2023-03-01T08:33:41;14.17;;;11.27;;
10894;SDS011;5500;49.886;8.074;2023-03-01T08:36:09;15.07;;;11.23;;
10894;SDS011;5500;49.886;8.074;2023-03-01T08:38:36;15.67;;;10.97;;
10894;SDS011;5500;49.886;8.074;2023-03-01T08:41:04;15.40;;;10.27;;
10894;SDS011;5500;49.886;8.074;2023-03-01T08:43:33;15.80;;;10.67;;
10894;SDS011;5500;49.886;8.074;2023-03-01T08:46:01;14.47;;;11.17;;
10894;SDS011;5500;49.886;8.074;2023-03-01T08:48:29;14.57;;;10.90;;
10894;SDS011;5500;49.886;8.074;2023-03-01T08:50:56;17.23;;;11.57;;
10894;SDS011;5500;49.886;8.074;2023-03-01T08:53:24;13.90;;;11.30;;
10894;SDS011;5500;49.886;8.074;2023-03-01T08:55:51;14.93;;;11.13;;
10894;SDS011;5500;49.886;8.074;2023-03-01T08:58:19;16.73;;;11.40;;
10894;SDS011;5500;49.886;8.074;2023-03-01T09:00:48;14.20;;;10.57;;
10894;SDS011;5500;49.886;8.074;2023-03-01T09:03:16;15.77;;;10.70;;
10894;SDS011;5500;49.886;8.074;2023-03-01T09:05:43;15.07;;;11.10;;
10894;SDS011;5500;49.886;8.074;2023-03-01T09:08:12;12.77;;;10.30;;
10894;SDS011;5500;49.886;8.074;2023-03-01T09:10:39;15.33;;;10.70;;
10894;SDS011;5500;49.886;8.074;2023-03-01T09:13:07;13.30;;;9.63;;
10894;SDS011;5500;49.886;8.074;2023-03-01T09:15:36;13.27;;;9.93;;
10894;SDS011;5500;49.886;8.074;2023-03-01T09:18:05;13.53;;;10.97;;
10894;SDS011;5500;49.886;8.074;2023-03-01T09:20:33;14.77;;;10.83;;
10894;SDS011;5500;49.886;8.074;2023-03-01T09:23:01;14.47;;;12.10;;
10894;SDS011;5500;49.886;8.074;2023-03-01T09:25:28;14.20;;;11.07;;
10894;SDS011;5500;49.886;8.074;2023-03-01T09:27:56;15.67;;;10.67;;
10894;SDS011;5500;49.886;8.074;2023-03-01T09:30:23;15.13;;;11.27;;
10894;SDS011;5500;49.886;8.074;2023-03-01T09:32:51;16.20;;;10.67;;
10894;SDS011;5500;49.886;8.074;2023-03-01T09:35:20;13.40;;;11.13;;
10894;SDS011;5500;49.886;8.074;2023-03-01T09:37:48;17.27;;;11.50;;
10894;SDS011;5500;49.886;8.074;2023-03-01T09:40:17;15.57;;;10.30;;
10894;SDS011;5500;49.886;8.074;2023-03-01T09:42:48;16.83;;;10.90;;
10894;SDS011;5500;49.886;8.074;2023-03-01T09:45:23;14.77;;;11.43;;
10894;SDS011;5500;49.886;8.074;2023-03-01T09:47:53;15.83;;;11.30;;
10894;SDS011;5500;49.886;8.074;2023-03-01T09:50:23;16.57;;;11.37;;
10894;SDS011;5500;49.886;8.074;2023-03-01T09:52:54;13.53;;;10.97;;
10894;SDS011;5500;49.886;8.074;2023-03-01T09:55:30;14.80;;;10.83;;
10894;SDS011;5500;49.886;8.074;2023-03-01T09:58:00;17.50;;;11.27;;
10894;SDS011;5500;49.886;8.074;2023-03-01T10:00:33;15.53;;;11.60;;
10894;SDS011;5500;49.886;8.074;2023-03-01T10:03:08;13.37;;;11.10;;
10894;SDS011;5500;49.886;8.074;2023-03-01T10:05:46;18.17;;;11.27;;
10894;SDS011;5500;49.886;8.074;2023-03-01T10:08:27;15.83;;;11.37;;
10894;SDS011;5500;49.886;8.074;2023-03-01T10:10:59;16.80;;;11.83;;
10894;SDS011;5500;49.886;8.074;2023-03-01T10:13:29;16.20;;;11.23;;
10894;SDS011;5500;49.886;8.074;2023-03-01T10:16:03;14.30;;;11.27;;
10894;SDS011;5500;49.886;8.074;2023-03-01T10:18:33;14.40;;;11.50;;
10894;SDS011;5500;49.886;8.074;2023-03-01T10:21:09;18.30;;;10.90;;
10894;SDS011;5500;49.886;8.074;2023-03-01T10:23:41;17.63;;;10.80;;
10894;SDS011;5500;49.886;8.074;2023-03-01T10:26:11;16.70;;;10.90;;
10894;SDS011;5500;49.886;8.074;2023-03-01T10:28:48;16.53;;;11.33;;
10894;SDS011;5500;49.886;8.074;2023-03-01T10:31:20;15.63;;;12.03;;
10894;SDS011;5500;49.886;8.074;2023-03-01T10:33:54;16.10;;;12.17;;
10894;SDS011;5500;49.886;8.074;2023-03-01T10:36:24;17.47;;;11.90;;
10894;SDS011;5500;49.886;8.074;2023-03-01T10:38:53;13.20;;;11.60;;
10894;SDS011;5500;49.886;8.074;2023-03-01T10:41:23;17.53;;;12.10;;
10894;SDS011;5500;49.886;8.074;2023-03-01T10:43:53;16.47;;;12.50;;
10894;SDS011;5500;49.886;8.074;2023-03-01T10:46:22;17.23;;;11.57;;
10894;SDS011;5500;49.886;8.074;2023-03-01T10:49:05;17.10;;;12.63;;
10894;SDS011;5500;49.886;8.074;2023-03-01T10:51:36;19.57;;;12.63;;
10894;SDS011;5500;49.886;8.074;2023-03-01T10:54:04;18.93;;;12.63;;
10894;SDS011;5500;49.886;8.074;2023-03-01T10:56:45;17.43;;;12.20;;
10894;SDS011;5500;49.886;8.074;2023-03-01T10:59:19;15.53;;;12.97;;
10894;SDS011;5500;49.886;8.074;2023-03-01T11:02:01;17.17;;;12.40;;
10894;SDS011;5500;49.886;8.074;2023-03-01T11:04:55;16.57;;;12.83;;
10894;SDS011;5500;49.886;8.074;2023-03-01T11:07:26;15.73;;;11.37;;
10894;SDS011;5500;49.886;8.074;2023-03-01T11:09:53;17.73;;;13.63;;
10894;SDS011;5500;49.886;8.074;2023-03-01T11:12:21;17.70;;;12.70;;
10894;SDS011;5500;49.886;8.074;2023-03-01T11:14:49;13.73;;;11.60;;
10894;SDS011;5500;49.886;8.074;2023-03-01T11:17:21;16.10;;;11.93;;
10894;SDS011;5500;49.886;8.074;2023-03-01T11:19:59;15.90;;;12.30;;
10894;SDS011;5500;49.886;8.074;2023-03-01T11:22:31;15.47;;;12.03;;
10894;SDS011;5500;49.886;8.074;2023-03-01T11:25:00;17.03;;;12.60;;
10894;SDS011;5500;49.886;8.074;2023-03-01T11:27:36;15.73;;;13.17;;
10894;SDS011;5500;49.886;8.074;2023-03-01T11:30:06;17.60;;;12.27;;
10894;SDS011;5500;49.886;8.074;2023-03-01T11:32:41;16.13;;;12.27;;
10894;SDS011;5500;49.886;8.074;2023-03-01T11:35:13;14.40;;;11.97;;
10894;SDS011;5500;49.886;8.074;2023-03-01T11:37:46;16.30;;;12.83;;
10894;SDS011;5500;49.886;8.074;2023-03-01T11:40:23;16.00;;;11.90;;
10894;SDS011;5500;49.886;8.074;2023-03-01T11:42:56;16.87;;;11.97;;
10894;SDS011;5500;49.886;8.074;2023-03-01T11:45:31;15.50;;;11.00;;
10894;SDS011;5500;49.886;8.074;2023-03-01T11:48:11;16.73;;;10.63;;
10894;SDS011;5500;49.886;8.074;2023-03-01T11:50:51;16.23;;;11.97;;
10894;SDS011;5500;49.886;8.074;2023-03-01T11:53:24;13.43;;;11.60;;
10894;SDS011;5500;49.886;8.074;2023-03-01T11:56:09;16.20;;;11.63;;
10894;SDS011;5500;49.886;8.074;2023-03-01T11:58:53;13.53;;;10.93;;
10894;SDS011;5500;49.886;8.074;2023-03-01T12:01:32;16.27;;;12.23;;
10894;SDS011;5500;49.886;8.074;2023-03-01T12:07:16;14.40;;;12.63;;
10894;SDS011;5500;49.886;8.074;2023-03-01T12:09:58;14.10;;;11.90;;
10894;SDS011;5500;49.886;8.074;2023-03-01T12:12:42;13.90;;;11.27;;
10894;SDS011;5500;49.886;8.074;2023-03-01T12:15:29;15.17;;;11.63;;
10894;SDS011;5500;49.886;8.074;2023-03-01T12:21:01;13.27;;;10.87;;
10894;SDS011;5500;49.886;8.074;2023-03-01T12:23:53;15.20;;;11.90;;
10894;SDS011;5500;49.886;8.074;2023-03-01T12:26:33;14.73;;;11.17;;
10894;SDS011;5500;49.886;8.074;2023-03-01T12:29:13;13.00;;;10.37;;
10894;SDS011;5500;49.886;8.074;2023-03-01T12:31:56;12.53;;;10.33;;
10894;SDS011;5500;49.886;8.074;2023-03-01T12:34:41;14.03;;;11.33;;
10894;SDS011;5500;49.886;8.074;2023-03-01T12:37:21;13.27;;;11.00;;
10894;SDS011;5500;49.886;8.074;2023-03-01T12:40:01;13.70;;;11.00;;
10894;SDS011;5500;49.886;8.074;2023-03-01T12:42:41;12.97;;;9.93;;
10894;SDS011;5500;49.886;8.074;2023-03-01T12:45:26;13.27;;;10.03;;
10894;SDS011;5500;49.886;8.074;2023-03-01T12:48:07;12.87;;;9.87;;
10894;SDS011;5500;49.886;8.074;2023-03-01T12:50:42;11.13;;;8.97;;
10894;SDS011;5500;49.886;8.074;2023-03-01T12:53:17;15.07;;;10.07;;
10894;SDS011;5500;49.886;8.074;2023-03-01T12:55:49;13.37;;;10.20;;
10894;SDS011;5500;49.886;8.074;2023-03-01T12:58:23;11.63;;;9.13;;
10894;SDS011;5500;49.886;8.074;2023-03-01T13:01:08;10.90;;;9.20;;
10894;SDS011;5500;49.886;8.074;2023-03-01T13:03:56;10.87;;;8.87;;
10894;SDS011;5500;49.886;8.074;2023-03-01T13:06:46;13.00;;;9.27;;
10894;SDS011;5500;49.886;8.074;2023-03-01T13:09:21;11.53;;;8.87;;
10894;SDS011;5500;49.886;8.074;2023-03-01T13:11:53;13.13;;;9.33;;
10894;SDS011;5500;49.886;8.074;2023-03-01T13:14:39;13.07;;;8.97;;
10894;SDS011;5500;49.886;8.074;2023-03-01T13:22:40;9.17;;;8.00;;
10894;SDS011;5500;49.886;8.074;2023-03-01T13:25:20;10.13;;;7.63;;
10894;SDS011;5500;49.886;8.074;2023-03-01T13:30:58;9.43;;;7.87;;
10894;SDS011;5500;49.886;8.074;2023-03-01T13:33:33;10.40;;;7.60;;
10894;SDS011;5500;49.886;8.074;2023-03-01T13:36:07;9.20;;;7.70;;
10894;SDS011;5500;49.886;8.074;2023-03-01T13:38:37;10.20;;;7.70;;
10894;SDS011;5500;49.886;8.074;2023-03-01T13:41:13;9.67;;;7.27;;
10894;SDS011;5500;49.886;8.074;2023-03-01T13:43:42;10.80;;;8.57;;
10894;SDS011;5500;49.886;8.074;2023-03-01T13:46:16;10.17;;;7.70;;
10894;SDS011;5500;49.886;8.074;2023-03-01T13:48:47;10.77;;;7.17;;
10894;SDS011;5500;49.886;8.074;2023-03-01T13:51:20;12.97;;;7.70;;
10894;SDS011;5500;49.886;8.074;2023-03-01T13:53:49;11.37;;;7.27;;
10894;SDS011;5500;49.886;8.074;2023-03-01T13:56:18;7.90;;;7.00;;
10894;SDS011;5500;49.886;8.074;2023-03-01T13:58:49;9.53;;;7.77;;
10894;SDS011;5500;49.886;8.074;2023-03-01T14:01:22;9.00;;;7.23;;
10894;SDS011;5500;49.886;8.074;2023-03-01T14:03:51;10.07;;;8.00;;
10894;SDS011;5500;49.886;8.074;2023-03-01T14:06:20;12.30;;;8.10;;
10894;SDS011;5500;49.886;8.074;2023-03-01T14:08:50;12.27;;;8.07;;
10894;SDS011;5500;49.886;8.074;2023-03-01T14:11:45;10.13;;;7.27;;
10894;SDS011;5500;49.886;8.074;2023-03-01T14:14:26;9.83;;;6.93;;
10894;SDS011;5500;49.886;8.074;2023-03-01T14:17:12;10.10;;;6.80;;
10894;SDS011;5500;49.886;8.074;2023-03-01T14:19:47;8.80;;;7.20;;
10894;SDS011;5500;49.886;8.074;2023-03-01T14:22:17;11.97;;;7.27;;
10894;SDS011;5500;49.886;8.074;2023-03-01T14:24:48;9.37;;;6.93;;
10894;SDS011;5500;49.886;8.074;2023-03-01T14:27:17;8.47;;;6.53;;
10894;SDS011;5500;49.886;8.074;2023-03-01T14:29:53;7.73;;;6.60;;
10894;SDS011;5500;49.886;8.074;2023-03-01T14:32:25;8.47;;;6.07;;
10894;SDS011;5500;49.886;8.074;2023-03-01T14:34:54;8.00;;;6.60;;
10894;SDS011;5500;49.886;8.074;2023-03-01T14:37:24;10.03;;;6.53;;
10894;SDS011;5500;49.886;8.074;2023-03-01T14:39:53;8.10;;;6.17;;
10894;SDS011;5500;49.886;8.074;2023-03-01T14:42:22;11.43;;;6.90;;
10894;SDS011;5500;49.886;8.074;2023-03-01T14:44:51;7.97;;;6.73;;
10894;SDS011;5500;49.886;8.074;2023-03-01T14:47:23;8.63;;;6.80;;
10894;SDS011;5500;49.886;8.074;2023-03-01T14:49:57;8.77;;;6.13;;
10894;SDS011;5500;49.886;8.074;2023-03-01T14:52:28;8.57;;;6.67;;
10894;SDS011;5500;49.886;8.074;2023-03-01T14:55:00;8.57;;;6.80;;
10894;SDS011;5500;49.886;8.074;2023-03-01T14:57:30;7.33;;;5.80;;
10894;SDS011;5500;49.886;8.074;2023-03-01T14:59:58;7.37;;;5.97;;
10894;SDS011;5500;49.886;8.074;2023-03-01T15:02:31;7.77;;;5.97;;
10894;SDS011;5500;49.886;8.074;2023-03-01T15:05:00;6.90;;;5.97;;
10894;SDS011;5500;49.886;8.074;2023-03-01T15:07:35;9.80;;;6.43;;
10894;SDS011;5500;49.886;8.074;2023-03-01T15:10:14;7.57;;;5.73;;
10894;SDS011;5500;49.886;8.074;2023-03-01T15:12:45;8.20;;;6.60;;
10894;SDS011;5500;49.886;8.074;2023-03-01T15:15:23;7.50;;;6.10;;
10894;SDS011;5500;49.886;8.074;2023-03-01T15:18:00;7.87;;;5.83;;